createdAt,value
2018-05-10T00:00:08.906Z,91.20
2018-05-10T00:02:36.447Z,91.70
2018-05-10T00:05:03.962Z,91.30
2018-05-10T00:07:31.490Z,91.20
2018-05-10T00:09:59.024Z,91.80
2018-05-10T00:12:45.843Z,92.00
2018-05-10T00:15:13.411Z,91.90
2018-05-10T00:17:40.955Z,91.80
2018-05-10T00:20:08.502Z,91.90
2018-05-10T00:22:36.029Z,99.90
2018-05-10T00:25:03.570Z,99.90
2018-05-10T00:27:31.875Z,99.10
2018-05-10T00:29:59.408Z,99.90
2018-05-10T00:32:26.933Z,93.90
2018-05-10T00:34:54.503Z,92.10
2018-05-10T00:37:22.035Z,92.40
2018-05-10T00:39:49.562Z,92.20
2018-05-10T00:44:49.896Z,92.00
2018-05-10T00:47:17.441Z,92.10
2018-05-10T00:49:44.980Z,92.00
2018-05-10T00:52:12.551Z,91.60
2018-05-10T00:54:52.578Z,91.80
2018-05-10T00:57:20.132Z,91.80
2018-05-10T00:59:47.659Z,91.70
2018-05-10T01:02:15.175Z,92.00
2018-05-10T01:04:42.747Z,91.60
2018-05-10T01:07:10.279Z,91.30
2018-05-10T01:09:37.804Z,91.20
2018-05-10T01:12:05.348Z,90.50
2018-05-10T01:14:32.887Z,90.20
2018-05-10T01:17:00.403Z,89.10
2018-05-10T01:19:27.958Z,90.30
2018-05-10T01:21:55.492Z,90.30
2018-05-10T01:24:23.017Z,90.00
2018-05-10T01:26:50.602Z,89.30
2018-05-10T01:29:18.144Z,89.30
2018-05-10T01:31:45.666Z,89.40
2018-05-10T01:34:13.206Z,89.90
2018-05-10T01:36:40.750Z,90.10
2018-05-10T01:39:08.307Z,90.10
2018-05-10T01:41:35.853Z,90.00
2018-05-10T01:44:03.391Z,89.60
2018-05-10T01:46:30.935Z,89.60
2018-05-10T01:48:59.242Z,90.00
2018-05-10T01:51:26.779Z,90.00
2018-05-10T01:53:54.320Z,90.20
2018-05-10T01:56:22.631Z,90.40
2018-05-10T01:58:50.167Z,90.70
2018-05-10T02:01:17.704Z,90.40
2018-05-10T02:03:45.233Z,90.60
2018-05-10T02:06:12.773Z,90.90
2018-05-10T02:08:40.344Z,90.70
2018-05-10T02:11:07.864Z,90.70
2018-05-10T02:13:35.435Z,90.90
2018-05-10T02:16:02.974Z,91.10
2018-05-10T02:18:30.495Z,91.00
2018-05-10T02:20:58.037Z,91.10
2018-05-10T02:23:25.579Z,91.20
2018-05-10T02:25:53.102Z,91.00
2018-05-10T02:28:20.676Z,91.00
2018-05-10T02:30:48.199Z,90.80
2018-05-10T02:33:15.743Z,90.90
2018-05-10T02:35:43.281Z,91.00
2018-05-10T02:38:10.798Z,91.00
2018-05-10T02:40:38.368Z,90.00
2018-05-10T02:43:05.949Z,90.30
2018-05-10T02:45:33.466Z,90.90
2018-05-10T02:48:01.016Z,90.90
2018-05-10T02:50:28.559Z,90.80
2018-05-10T02:52:56.096Z,91.00
2018-05-10T02:55:23.622Z,90.80
2018-05-10T02:57:51.255Z,90.60
2018-05-10T03:00:19.505Z,91.00
2018-05-10T03:02:47.091Z,91.00
2018-05-10T03:05:14.611Z,91.30
2018-05-10T03:07:42.166Z,91.50
2018-05-10T03:10:09.674Z,91.40
2018-05-10T03:12:37.250Z,90.90
2018-05-10T03:15:04.790Z,90.60
2018-05-10T03:17:33.096Z,90.70
2018-05-10T03:20:00.636Z,90.70
2018-05-10T03:22:28.307Z,90.70
2018-05-10T03:24:55.874Z,90.90
2018-05-10T03:27:23.427Z,90.80
2018-05-10T03:29:50.946Z,90.70
2018-05-10T03:32:23.399Z,90.70
2018-05-10T03:34:50.919Z,90.80
2018-05-10T03:37:18.473Z,91.20
2018-05-10T03:39:46.751Z,91.20
2018-05-10T03:42:14.429Z,91.20
2018-05-10T03:44:42.098Z,91.20
2018-05-10T03:47:09.676Z,91.20
2018-05-10T03:49:37.203Z,91.40
2018-05-10T03:52:04.851Z,91.60
2018-05-10T03:54:32.384Z,91.80
2018-05-10T03:57:00.670Z,92.20
2018-05-10T03:59:28.235Z,92.20
2018-05-10T04:01:56.518Z,92.40
2018-05-10T04:04:35.918Z,92.30
2018-05-10T04:07:15.143Z,92.90
2018-05-10T04:09:54.402Z,92.70
2018-05-10T04:15:15.543Z,93.10
2018-05-10T04:17:43.113Z,93.10
2018-05-10T04:20:10.663Z,93.00
2018-05-10T04:22:38.171Z,93.60
2018-05-10T04:25:05.720Z,93.40
2018-05-10T04:27:33.280Z,93.50
2018-05-10T04:30:00.799Z,93.70
2018-05-10T04:32:28.352Z,93.90
2018-05-10T04:34:55.870Z,94.00
2018-05-10T04:37:23.397Z,94.30
2018-05-10T04:39:50.961Z,94.00
2018-05-10T04:42:18.499Z,94.10
2018-05-10T04:44:46.018Z,94.10
2018-05-10T04:47:13.575Z,93.70
2018-05-10T04:49:41.125Z,93.20
2018-05-10T04:52:08.651Z,92.80
2018-05-10T04:54:36.196Z,92.90
2018-05-10T04:57:03.714Z,93.00
2018-05-10T04:59:31.246Z,93.20
2018-05-10T05:01:58.751Z,93.10
2018-05-10T05:04:26.286Z,93.20
2018-05-10T05:06:53.839Z,93.50
2018-05-10T05:09:21.378Z,93.00
2018-05-10T05:11:48.921Z,93.10
2018-05-10T05:14:16.477Z,92.60
2018-05-10T05:16:44.003Z,92.40
2018-05-10T05:19:11.532Z,92.60
2018-05-10T05:21:39.129Z,93.20
2018-05-10T05:24:06.687Z,93.60
2018-05-10T05:26:34.214Z,93.90
2018-05-10T05:29:01.802Z,93.90
2018-05-10T05:31:30.085Z,93.60
2018-05-10T05:34:16.616Z,93.50
2018-05-10T05:36:44.143Z,93.40
2018-05-10T05:39:11.667Z,93.20
2018-05-10T05:41:39.219Z,93.00
2018-05-10T05:44:06.731Z,93.40
2018-05-10T05:46:34.262Z,93.80
2018-05-10T05:49:02.562Z,94.00
2018-05-10T05:51:30.082Z,94.00
2018-05-10T05:53:57.589Z,94.30
2018-05-10T05:56:25.175Z,94.40
2018-05-10T05:58:52.678Z,94.70
2018-05-10T06:01:20.240Z,94.90
2018-05-10T06:03:48.546Z,95.40
2018-05-10T06:06:16.080Z,95.40
2018-05-10T06:08:43.751Z,95.60
2018-05-10T06:11:11.212Z,95.80
2018-05-10T06:13:38.784Z,95.70
2018-05-10T06:16:06.399Z,95.60
2018-05-10T06:18:33.979Z,95.70
2018-05-10T06:21:02.280Z,95.50
2018-05-10T06:23:29.808Z,95.40
2018-05-10T06:25:58.138Z,95.90
2018-05-10T06:28:25.650Z,95.90
2018-05-10T06:30:53.186Z,96.20
2018-05-10T06:33:20.759Z,96.40
2018-05-10T06:35:48.299Z,96.90
2018-05-10T06:38:15.840Z,97.00
2018-05-10T06:40:43.464Z,96.60
2018-05-10T06:43:11.013Z,96.90
2018-05-10T06:45:38.540Z,97.00
2018-05-10T06:48:06.115Z,96.40
2018-05-10T06:50:33.667Z,96.60
2018-05-10T06:53:01.979Z,96.70
2018-05-10T06:55:29.533Z,96.70
2018-05-10T06:57:57.100Z,96.60
2018-05-10T07:00:24.658Z,96.40
2018-05-10T07:02:52.264Z,96.30
2018-05-10T07:05:19.831Z,96.20
2018-05-10T07:07:47.357Z,96.20
2018-05-10T07:10:14.892Z,96.20
2018-05-10T07:12:42.468Z,96.10
2018-05-10T07:15:09.987Z,96.00
2018-05-10T07:17:37.531Z,96.00
2018-05-10T07:20:05.888Z,95.90
2018-05-10T07:22:33.558Z,95.90
2018-05-10T07:25:01.087Z,95.90
2018-05-10T07:27:28.660Z,95.80
2018-05-10T07:29:56.207Z,95.90
2018-05-10T07:32:33.535Z,96.30
2018-05-10T07:35:01.059Z,96.40
2018-05-10T07:37:28.601Z,95.80
2018-05-10T07:39:56.114Z,96.10
2018-05-10T07:42:23.684Z,96.50
2018-05-10T07:44:51.227Z,96.60
2018-05-10T07:47:19.528Z,96.00
2018-05-10T07:49:47.086Z,95.90
2018-05-10T07:52:14.631Z,95.50
2018-05-10T07:54:42.183Z,94.40
2018-05-10T07:57:09.747Z,93.60
2018-05-10T07:59:38.100Z,95.40
2018-05-10T08:02:05.576Z,95.30
2018-05-10T08:04:33.121Z,95.50
2018-05-10T08:07:00.650Z,95.40
2018-05-10T08:09:28.174Z,95.40
2018-05-10T08:11:55.729Z,95.90
2018-05-10T08:14:23.304Z,96.10
2018-05-10T08:16:50.851Z,96.00
2018-05-10T08:19:18.390Z,94.40
2018-05-10T08:21:45.924Z,94.30
2018-05-10T08:24:13.474Z,94.70
2018-05-10T08:26:41.008Z,94.50
2018-05-10T08:29:08.539Z,93.90
2018-05-10T08:31:36.095Z,94.10
2018-05-10T08:34:03.621Z,94.10
2018-05-10T08:36:31.205Z,93.60
2018-05-10T08:38:58.699Z,93.40
2018-05-10T08:41:26.244Z,93.40
2018-05-10T08:43:53.783Z,93.90
2018-05-10T08:46:21.371Z,93.70
2018-05-10T08:48:48.907Z,93.60
2018-05-10T08:51:16.452Z,94.20
2018-05-10T08:53:44.019Z,94.00
2018-05-10T08:56:11.573Z,94.40
2018-05-10T08:58:39.128Z,94.10
2018-05-10T09:01:06.684Z,93.50
2018-05-10T09:03:34.976Z,92.60
2018-05-10T09:06:02.502Z,92.50
2018-05-10T09:08:30.035Z,92.50
2018-05-10T09:10:57.552Z,92.70
2018-05-10T09:13:25.114Z,92.30
2018-05-10T09:15:52.655Z,91.70
2018-05-10T09:18:20.206Z,91.30
2018-05-10T09:20:47.776Z,91.90
2018-05-10T09:23:16.115Z,91.60
2018-05-10T09:25:43.651Z,91.60
2018-05-10T09:28:11.188Z,92.00
2018-05-10T09:30:38.723Z,91.50
2018-05-10T09:33:06.303Z,91.90
2018-05-10T09:35:33.837Z,91.50
2018-05-10T09:38:01.363Z,91.60
2018-05-10T09:40:28.943Z,91.10
2018-05-10T09:42:56.463Z,90.50
2018-05-10T09:45:24.016Z,90.20
2018-05-10T09:47:51.584Z,89.90
2018-05-10T09:50:19.099Z,90.30
2018-05-10T09:52:51.523Z,90.60
2018-05-10T09:55:19.071Z,90.30
2018-05-10T09:57:46.613Z,90.10
2018-05-10T10:00:19.788Z,90.20
2018-05-10T10:02:47.307Z,90.40
2018-05-10T10:05:14.835Z,91.00
2018-05-10T10:07:42.370Z,91.00
2018-05-10T10:10:09.955Z,90.80
2018-05-10T10:12:37.488Z,91.00
2018-05-10T10:15:05.040Z,90.30
2018-05-10T10:17:32.603Z,89.90
2018-05-10T10:20:00.148Z,89.40
2018-05-10T10:22:27.703Z,87.00
2018-05-10T10:24:55.299Z,87.20
2018-05-10T10:27:22.845Z,87.20
2018-05-10T10:29:50.438Z,86.10
2018-05-10T10:32:18.046Z,87.10
2018-05-10T10:34:45.509Z,86.40
2018-05-10T10:37:13.220Z,84.40
2018-05-10T10:39:40.735Z,86.20
2018-05-10T10:42:08.254Z,82.50
2018-05-10T10:44:35.827Z,83.90
2018-05-10T10:47:03.395Z,83.70
2018-05-10T10:49:31.702Z,81.30
2018-05-10T10:51:59.240Z,81.30
2018-05-10T10:54:26.811Z,80.20
2018-05-10T10:56:54.372Z,79.80
2018-05-10T10:59:21.912Z,79.60
2018-05-10T11:01:49.552Z,79.50
2018-05-10T11:04:17.022Z,80.00
2018-05-10T11:06:45.318Z,79.70
2018-05-10T11:09:12.860Z,79.80
2018-05-10T11:11:41.179Z,80.10
2018-05-10T11:14:08.722Z,79.40
2018-05-10T11:16:36.319Z,80.80
2018-05-10T11:19:03.842Z,81.80
2018-05-10T11:21:31.371Z,81.20
2018-05-10T11:24:09.457Z,81.30
2018-05-10T11:26:37.030Z,81.30
2018-05-10T11:29:04.512Z,80.90
2018-05-10T11:31:32.082Z,80.70
2018-05-10T11:36:52.909Z,79.80
2018-05-10T11:39:20.443Z,81.00
2018-05-10T11:41:48.025Z,79.70
2018-05-10T11:47:31.885Z,79.40
2018-05-10T11:50:00.176Z,80.20
2018-05-10T11:52:27.746Z,80.20
2018-05-10T11:54:55.383Z,79.20
2018-05-10T11:57:22.985Z,80.00
2018-05-10T11:59:50.483Z,80.20
2018-05-10T12:02:18.016Z,79.70
2018-05-10T12:04:45.574Z,80.50
2018-05-10T12:07:13.125Z,77.60
2018-05-10T12:09:40.647Z,79.80
2018-05-10T12:12:08.179Z,78.30
2018-05-10T12:14:35.762Z,76.10
2018-05-10T12:17:03.296Z,76.60
2018-05-10T12:19:30.827Z,75.50
2018-05-10T12:21:58.423Z,77.50
2018-05-10T12:24:25.959Z,78.00
2018-05-10T12:26:54.282Z,77.40
2018-05-10T12:29:21.794Z,77.30
2018-05-10T12:31:49.334Z,76.30
2018-05-10T12:34:16.908Z,76.90
2018-05-10T12:36:44.512Z,75.20
2018-05-10T12:39:12.008Z,75.00
2018-05-10T12:41:40.311Z,77.10
2018-05-10T12:44:07.880Z,77.10
2018-05-10T12:46:35.424Z,75.30
2018-05-10T12:49:02.996Z,75.30
2018-05-10T12:51:30.555Z,76.70
2018-05-10T12:53:58.082Z,75.00
2018-05-10T12:56:25.699Z,75.80
2018-05-10T12:58:53.974Z,77.10
2018-05-10T13:01:21.492Z,77.00
2018-05-10T13:03:49.020Z,76.50
2018-05-10T13:06:16.620Z,77.50
2018-05-10T13:08:44.174Z,78.90
2018-05-10T13:11:11.698Z,79.80
2018-05-10T13:13:39.240Z,80.70
2018-05-10T13:16:06.849Z,84.10
2018-05-10T13:18:34.329Z,85.50
2018-05-10T13:21:01.831Z,84.70
2018-05-10T13:23:29.410Z,87.70
2018-05-10T13:25:56.979Z,88.10
2018-05-10T13:28:24.495Z,86.40
2018-05-10T13:30:52.029Z,84.00
2018-05-10T13:33:19.568Z,83.90
2018-05-10T13:35:47.102Z,82.80
2018-05-10T13:38:15.463Z,84.40
2018-05-10T13:40:42.935Z,84.30
2018-05-10T13:43:21.049Z,83.40
2018-05-10T13:45:49.355Z,86.00
2018-05-10T13:48:16.870Z,86.00
2018-05-10T13:50:44.450Z,87.70
2018-05-10T13:53:11.980Z,87.50
2018-05-10T13:55:39.536Z,88.00
2018-05-10T13:58:07.069Z,87.00
2018-05-10T14:00:34.588Z,87.20
2018-05-10T14:03:07.050Z,87.50
2018-05-10T14:05:34.588Z,87.80
2018-05-10T14:08:02.127Z,87.70
2018-05-10T14:10:29.675Z,87.20
2018-05-10T14:12:57.226Z,88.70
2018-05-10T14:15:24.803Z,88.10
2018-05-10T14:17:52.358Z,89.40
2018-05-10T14:20:19.897Z,89.30
2018-05-10T14:22:47.416Z,88.90
2018-05-10T14:25:15.035Z,90.10
2018-05-10T14:27:43.284Z,90.50
2018-05-10T14:30:10.811Z,90.50
2018-05-10T14:32:39.146Z,90.50
2018-05-10T14:35:06.667Z,90.50
2018-05-10T14:37:34.236Z,90.50
2018-05-10T14:40:01.840Z,90.30
2018-05-10T14:42:29.360Z,90.60
2018-05-10T14:44:56.898Z,90.90
2018-05-10T14:47:24.423Z,90.70
2018-05-10T14:49:51.982Z,90.90
2018-05-10T14:52:19.506Z,90.60
2018-05-10T14:54:47.035Z,91.00
2018-05-10T14:57:14.625Z,90.90
2018-05-10T14:59:42.177Z,91.10
2018-05-10T15:02:09.712Z,91.00
2018-05-10T15:04:37.293Z,90.70
2018-05-10T15:07:04.807Z,90.60
2018-05-10T15:09:33.097Z,90.60
2018-05-10T15:12:00.630Z,90.60
2018-05-10T15:14:28.180Z,90.80
2018-05-10T15:16:55.709Z,90.20
2018-05-10T15:19:23.255Z,91.10
2018-05-10T15:21:50.783Z,90.60
2018-05-10T15:24:18.346Z,90.90
2018-05-10T15:26:46.814Z,90.60
2018-05-10T15:29:15.106Z,90.50
2018-05-10T15:31:42.666Z,90.50
2018-05-10T15:34:10.216Z,90.60
2018-05-10T15:36:37.748Z,90.90
2018-05-10T15:39:05.328Z,91.40
2018-05-10T15:41:32.831Z,91.60
2018-05-10T15:44:00.354Z,90.90
2018-05-10T15:46:27.952Z,91.10
2018-05-10T15:48:55.489Z,90.70
2018-05-10T15:51:22.995Z,90.20
2018-05-10T15:53:50.529Z,89.80
2018-05-10T15:56:18.094Z,87.30
2018-05-10T15:58:45.628Z,85.30
2018-05-10T16:01:13.143Z,86.70
2018-05-10T16:03:40.686Z,88.10
2018-05-10T16:06:08.212Z,87.70
2018-05-10T16:08:35.770Z,88.60
2018-05-10T16:11:03.296Z,89.30
2018-05-10T16:13:31.586Z,89.60
2018-05-10T16:15:59.135Z,89.50
2018-05-10T16:18:26.698Z,88.40
2018-05-10T16:20:54.249Z,88.10
2018-05-10T16:23:21.828Z,89.60
2018-05-10T16:25:49.364Z,88.50
2018-05-10T16:28:16.932Z,88.60
2018-05-10T16:30:44.483Z,89.40
2018-05-10T16:33:12.778Z,90.00
2018-05-10T16:35:40.307Z,89.90
2018-05-10T16:38:08.625Z,87.70
2018-05-10T16:40:36.150Z,87.70
2018-05-10T16:43:03.711Z,88.30
2018-05-10T16:45:32.014Z,86.30
2018-05-10T16:47:59.529Z,86.20
2018-05-10T16:50:27.119Z,86.70
2018-05-10T16:52:54.634Z,87.30
2018-05-10T16:55:22.148Z,87.90
2018-05-10T16:57:49.692Z,88.80
2018-05-10T17:00:17.236Z,88.80
2018-05-10T17:02:45.610Z,87.80
2018-05-10T17:05:13.953Z,90.00
2018-05-10T17:07:41.485Z,89.90
2018-05-10T17:10:09.801Z,88.70
2018-05-10T17:12:37.351Z,88.70
2018-05-10T17:15:04.873Z,88.30
2018-05-10T17:17:32.399Z,89.20
2018-05-10T17:19:59.964Z,88.50
2018-05-10T17:22:27.523Z,88.60
2018-05-10T17:24:55.068Z,87.10
2018-05-10T17:27:22.650Z,88.50
2018-05-10T17:29:50.194Z,89.30
2018-05-10T17:32:17.851Z,88.40
2018-05-10T17:34:46.169Z,86.50
2018-05-10T17:37:13.674Z,86.50
2018-05-10T17:39:41.205Z,85.40
2018-05-10T17:42:09.352Z,84.90
2018-05-10T17:44:36.879Z,83.90
2018-05-10T17:47:05.207Z,85.10
2018-05-10T17:49:32.741Z,85.10
2018-05-10T17:52:00.371Z,84.80
2018-05-10T17:54:27.904Z,82.80
2018-05-10T17:56:55.477Z,84.40
2018-05-10T17:59:22.999Z,82.80
2018-05-10T18:01:50.532Z,83.80
2018-05-10T18:04:18.071Z,84.60
2018-05-10T18:06:46.371Z,84.60
2018-05-10T18:09:13.902Z,84.50
2018-05-10T18:11:42.199Z,83.60
2018-05-10T18:14:10.511Z,83.70
2018-05-10T18:16:38.027Z,83.70
2018-05-10T18:19:05.527Z,84.20
2018-05-10T18:21:33.132Z,85.40
2018-05-10T18:24:00.694Z,86.60
2018-05-10T18:26:29.035Z,90.50
2018-05-10T18:28:56.580Z,90.50
2018-05-10T18:31:24.108Z,91.10
2018-05-10T18:33:51.653Z,91.40
2018-05-10T18:36:19.212Z,91.30
2018-05-10T18:38:46.738Z,91.80
2018-05-10T18:41:14.318Z,91.90
2018-05-10T18:43:42.618Z,92.20
2018-05-10T18:46:10.148Z,92.20
2018-05-10T18:48:37.729Z,92.40
2018-05-10T18:51:05.257Z,92.40
2018-05-10T18:53:32.768Z,91.50
2018-05-10T18:56:00.302Z,91.20
2018-05-10T18:58:27.840Z,91.10
2018-05-10T19:00:56.130Z,91.40
2018-05-10T19:03:23.679Z,91.40
2018-05-10T19:05:51.220Z,91.50
2018-05-10T19:08:18.785Z,91.80
2018-05-10T19:10:46.318Z,92.10
2018-05-10T19:13:13.853Z,92.60
2018-05-10T19:15:41.385Z,92.70
2018-05-10T19:18:08.951Z,93.00
2018-05-10T19:20:36.529Z,93.00
2018-05-10T19:23:04.068Z,92.90
2018-05-10T19:25:31.603Z,93.10
2018-05-10T19:27:59.923Z,92.80
2018-05-10T19:30:27.454Z,92.80
2018-05-10T19:32:55.209Z,92.90
2018-05-10T19:35:22.776Z,93.10
2018-05-10T19:37:50.307Z,93.40
2018-05-10T19:40:17.855Z,93.30
2018-05-10T19:42:45.432Z,92.50
2018-05-10T19:45:12.957Z,93.30
2018-05-10T19:47:40.501Z,93.30
2018-05-10T19:50:08.044Z,93.10
2018-05-10T19:52:35.579Z,92.90
2018-05-10T19:55:03.895Z,93.40
2018-05-10T19:57:31.422Z,93.40
2018-05-10T19:59:58.975Z,93.70
2018-05-10T20:02:26.541Z,94.30
2018-05-10T20:04:54.080Z,94.30
2018-05-10T20:07:22.380Z,94.80
2018-05-10T20:09:49.928Z,94.80
2018-05-10T20:12:17.443Z,94.90
2018-05-10T20:14:44.952Z,94.90
2018-05-10T20:17:12.546Z,94.80
2018-05-10T20:19:40.108Z,94.60
2018-05-10T20:22:07.627Z,94.80
2018-05-10T20:24:35.177Z,94.90
2018-05-10T20:27:02.731Z,95.00
2018-05-10T20:29:31.044Z,94.80
2018-05-10T20:31:58.620Z,94.80
2018-05-10T20:34:26.166Z,94.90
2018-05-10T20:36:53.699Z,94.70
2018-05-10T20:39:21.255Z,94.40
2018-05-10T20:41:48.811Z,94.30
2018-05-10T20:44:16.349Z,94.10
2018-05-10T20:46:43.891Z,94.30
2018-05-10T20:49:11.417Z,94.20
2018-05-10T20:51:38.976Z,94.20
2018-05-10T20:54:06.494Z,94.30
2018-05-10T20:56:34.036Z,94.00
2018-05-10T20:59:01.585Z,93.90
2018-05-10T21:01:29.131Z,93.90
2018-05-10T21:04:01.578Z,93.80
2018-05-10T21:06:29.103Z,93.90
2018-05-10T21:08:57.464Z,94.20
2018-05-10T21:11:24.992Z,94.20
2018-05-10T21:13:52.561Z,94.50
2018-05-10T21:16:20.163Z,94.50
2018-05-10T21:18:48.477Z,94.80
2018-05-10T21:21:16.003Z,94.80
2018-05-10T21:23:44.314Z,94.50
2018-05-10T21:26:11.901Z,94.40
2018-05-10T21:28:40.128Z,94.60
2018-05-10T21:31:07.726Z,94.60
2018-05-10T21:33:35.263Z,94.70
2018-05-10T21:36:02.777Z,94.90
2018-05-10T21:38:31.117Z,95.20
2018-05-10T21:40:58.635Z,95.20
2018-05-10T21:43:26.163Z,95.10
2018-05-10T21:45:54.513Z,95.00
2018-05-10T21:48:22.036Z,95.00
2018-05-10T21:50:49.570Z,94.60
2018-05-10T21:53:17.150Z,94.80
2018-05-10T21:55:44.695Z,94.90
2018-05-10T21:58:13.003Z,95.10
2018-05-10T22:00:40.664Z,95.10
2018-05-10T22:03:08.184Z,95.30
2018-05-10T22:05:35.765Z,94.90
2018-05-10T22:08:03.311Z,94.60
2018-05-10T22:10:30.835Z,95.00
2018-05-10T22:12:58.353Z,94.90
2018-05-10T22:15:25.946Z,95.10
2018-05-10T22:17:53.492Z,95.00
2018-05-10T22:20:21.027Z,94.80
2018-05-10T22:22:48.567Z,94.50
2018-05-10T22:25:16.899Z,94.60
2018-05-10T22:27:44.439Z,94.50
2018-05-10T22:30:12.091Z,94.30
2018-05-10T22:32:39.548Z,94.30
2018-05-10T22:35:07.105Z,94.20
2018-05-10T22:37:34.619Z,94.30
2018-05-10T22:40:02.180Z,94.60
2018-05-10T22:42:30.495Z,94.40
2018-05-10T22:44:57.999Z,94.40
2018-05-10T22:47:25.584Z,94.90
2018-05-10T22:49:53.120Z,94.60
2018-05-10T22:52:21.460Z,94.50
2018-05-10T22:54:49.005Z,94.40
2018-05-10T22:57:16.539Z,94.30
2018-05-10T22:59:44.119Z,94.30
2018-05-10T23:02:11.631Z,94.10
2018-05-10T23:04:39.166Z,94.30
2018-05-10T23:07:06.679Z,94.30
2018-05-10T23:09:34.256Z,94.00
2018-05-10T23:12:01.842Z,94.10
2018-05-10T23:14:29.345Z,94.10
2018-05-10T23:16:56.894Z,94.00
2018-05-10T23:19:24.483Z,94.10
2018-05-10T23:21:52.036Z,94.30
2018-05-10T23:24:19.577Z,94.10
2018-05-10T23:26:47.884Z,94.20
2018-05-10T23:29:16.168Z,93.70
2018-05-10T23:31:43.700Z,93.70
2018-05-10T23:34:35.159Z,93.80
2018-05-10T23:37:02.697Z,94.00
2018-05-10T23:39:30.194Z,93.70
2018-05-10T23:41:57.716Z,93.70
2018-05-10T23:44:31.368Z,93.80
2018-05-10T23:46:59.676Z,94.00
2018-05-10T23:49:27.219Z,94.00
2018-05-10T23:51:55.514Z,94.10
2018-05-10T23:54:23.034Z,94.10
2018-05-10T23:56:50.586Z,94.20
2018-05-10T23:59:18.091Z,94.10
